createdAt,value
2023-04-27T00:02:03.043Z,5.43
2023-04-27T00:04:29.937Z,6.47
2023-04-27T00:06:57.271Z,7.97
2023-04-27T00:09:24.412Z,12.80
2023-04-27T00:11:51.096Z,7.27
2023-04-27T00:14:18.219Z,10.13
2023-04-27T00:16:45.394Z,8.00
2023-04-27T00:19:13.619Z,11.07
2023-04-27T00:21:40.637Z,7.90
2023-04-27T00:24:07.708Z,8.27
2023-04-27T00:26:34.792Z,6.77
2023-04-27T00:29:01.850Z,7.60
2023-04-27T00:31:29.056Z,6.57
2023-04-27T00:33:55.860Z,5.43
2023-04-27T00:36:22.952Z,5.47
2023-04-27T00:38:49.680Z,8.33
2023-04-27T00:41:16.744Z,5.83
2023-04-27T00:43:45.094Z,7.57
2023-04-27T00:46:16.805Z,9.03
2023-04-27T00:48:44.211Z,6.37
2023-04-27T00:51:11.057Z,5.83
2023-04-27T00:53:38.171Z,6.57
2023-04-27T00:56:05.939Z,6.77
2023-04-27T00:58:32.985Z,7.70
2023-04-27T01:01:00.863Z,6.43
2023-04-27T01:03:28.117Z,6.50
2023-04-27T01:05:56.675Z,11.10
2023-04-27T01:08:24.594Z,8.53
2023-04-27T01:10:51.752Z,7.43
2023-04-27T01:13:18.688Z,7.60
2023-04-27T01:15:45.908Z,6.23
2023-04-27T01:18:12.694Z,7.53
2023-04-27T01:20:39.830Z,7.40
2023-04-27T01:23:06.972Z,9.77
2023-04-27T01:25:49.133Z,8.97
2023-04-27T01:28:15.784Z,6.03
2023-04-27T01:30:42.460Z,10.03
2023-04-27T01:33:09.558Z,6.33
2023-04-27T01:35:37.065Z,9.90
2023-04-27T01:38:04.137Z,7.77
2023-04-27T01:40:30.855Z,7.30
2023-04-27T01:42:57.906Z,8.07
2023-04-27T01:45:24.993Z,9.47
2023-04-27T01:47:52.653Z,7.20
2023-04-27T01:50:20.195Z,8.37
2023-04-27T01:52:46.934Z,16.00
2023-04-27T01:57:58.470Z,8.40
2023-04-27T02:05:53.763Z,9.80
2023-04-27T02:11:05.338Z,10.87
2023-04-27T02:13:32.387Z,9.37
2023-04-27T02:16:02.008Z,9.50
2023-04-27T02:18:29.243Z,7.87
2023-04-27T02:20:56.306Z,9.13
2023-04-27T02:23:23.400Z,8.33
2023-04-27T02:25:50.511Z,8.93
2023-04-27T02:39:39.775Z,8.23
2023-04-27T02:46:43.610Z,7.47
2023-04-27T02:50:06.787Z,8.30
2023-04-27T02:53:29.674Z,10.00
2023-04-27T02:56:52.673Z,9.07
2023-04-27T03:18:40.597Z,9.70
2023-04-27T03:21:25.178Z,10.43
2023-04-27T03:23:51.865Z,9.13
2023-04-27T03:26:18.908Z,11.23
2023-04-27T03:28:46.113Z,10.47
2023-04-27T03:31:14.582Z,12.20
2023-04-27T03:33:41.559Z,8.90
2023-04-27T03:36:10.464Z,8.73
2023-04-27T03:38:37.289Z,11.67
2023-04-27T03:41:04.486Z,9.57
2023-04-27T03:43:31.602Z,10.97
2023-04-27T03:45:58.775Z,8.33
2023-04-27T03:48:25.667Z,11.17
2023-04-27T03:50:52.803Z,12.23
2023-04-27T03:53:19.866Z,14.37
2023-04-27T03:55:47.763Z,10.43
2023-04-27T03:58:14.497Z,13.83
2023-04-27T04:00:41.615Z,9.63
2023-04-27T04:03:09.053Z,11.80
2023-04-27T04:05:36.088Z,10.70
2023-04-27T04:08:03.480Z,14.30
2023-04-27T04:10:30.610Z,11.37
2023-04-27T04:12:57.718Z,11.00
2023-04-27T04:15:24.397Z,13.93
2023-04-27T04:17:51.828Z,10.87
2023-04-27T04:20:18.560Z,9.77
2023-04-27T04:22:45.889Z,13.00
2023-04-27T04:25:13.055Z,10.43
2023-04-27T04:27:40.805Z,15.97
2023-04-27T04:30:08.356Z,9.80
2023-04-27T04:32:40.372Z,10.33
2023-04-27T04:35:07.276Z,12.07
2023-04-27T04:37:35.458Z,10.60
2023-04-27T04:40:11.250Z,10.60
2023-04-27T04:42:38.239Z,13.13
2023-04-27T04:45:06.137Z,11.93
2023-04-27T04:47:34.210Z,11.03
2023-04-27T04:50:01.548Z,9.90
2023-04-27T04:52:28.284Z,16.33
2023-04-27T04:54:54.995Z,14.17
2023-04-27T04:57:22.193Z,10.77
2023-04-27T04:59:48.895Z,11.57
2023-04-27T05:02:16.069Z,13.20
2023-04-27T05:04:43.374Z,9.53
2023-04-27T05:07:14.075Z,11.00
2023-04-27T05:09:41.546Z,11.47
2023-04-27T05:12:08.257Z,13.10
2023-04-27T05:14:35.270Z,13.80
2023-04-27T05:17:02.393Z,13.30
2023-04-27T05:19:30.100Z,14.10
2023-04-27T05:21:58.211Z,11.93
2023-04-27T05:24:26.239Z,9.90
2023-04-27T05:26:53.576Z,10.63
2023-04-27T05:29:20.544Z,12.33
2023-04-27T05:31:47.650Z,12.17
2023-04-27T05:34:14.494Z,12.17
2023-04-27T05:36:41.587Z,11.53
2023-04-27T05:39:08.304Z,12.93
2023-04-27T05:41:35.463Z,11.30
2023-04-27T05:44:02.131Z,13.27
2023-04-27T05:46:28.962Z,12.33
2023-04-27T05:48:55.920Z,13.63
2023-04-27T05:51:23.008Z,11.97
2023-04-27T05:53:50.098Z,14.87
2023-04-27T05:56:16.799Z,15.10
2023-04-27T05:58:43.484Z,13.87
2023-04-27T06:01:10.597Z,14.30
2023-04-27T06:03:37.935Z,14.00
2023-04-27T06:06:04.862Z,12.37
2023-04-27T06:08:32.018Z,13.83
2023-04-27T06:10:58.791Z,13.40
2023-04-27T06:13:25.511Z,13.60
2023-04-27T06:15:52.308Z,11.83
2023-04-27T06:18:19.090Z,11.67
2023-04-27T06:20:46.949Z,11.03
2023-04-27T06:23:14.054Z,12.03
2023-04-27T06:25:41.308Z,10.40
2023-04-27T06:28:08.457Z,9.00
2023-04-27T06:30:36.992Z,12.60
2023-04-27T06:33:04.301Z,13.83
2023-04-27T06:35:31.615Z,11.33
2023-04-27T06:37:59.018Z,10.93
2023-04-27T06:40:26.562Z,12.23
2023-04-27T06:42:53.892Z,13.67
2023-04-27T06:45:20.978Z,12.43
2023-04-27T06:47:47.697Z,14.03
2023-04-27T06:50:15.845Z,10.73
2023-04-27T06:52:42.997Z,12.70
2023-04-27T06:55:10.147Z,9.90
2023-04-27T06:57:37.225Z,9.97
2023-04-27T07:00:05.108Z,13.33
2023-04-27T07:02:32.271Z,11.70
2023-04-27T07:04:59.520Z,12.70
2023-04-27T07:07:26.785Z,10.80
2023-04-27T07:09:53.559Z,13.10
2023-04-27T07:12:20.376Z,8.53
2023-04-27T07:14:47.649Z,11.53
2023-04-27T07:17:14.705Z,13.53
2023-04-27T07:19:41.789Z,12.63
2023-04-27T07:22:08.496Z,11.67
2023-04-27T07:24:35.608Z,12.27
2023-04-27T07:27:03.682Z,10.80
2023-04-27T07:29:30.924Z,14.10
2023-04-27T07:31:58.433Z,12.33
2023-04-27T07:34:25.154Z,13.00
2023-04-27T07:36:54.474Z,12.10
2023-04-27T07:39:21.361Z,11.80
2023-04-27T07:41:49.833Z,10.87
2023-04-27T07:44:18.654Z,12.80
2023-04-27T07:46:48.804Z,13.33
2023-04-27T07:49:16.430Z,12.70
2023-04-27T07:51:43.517Z,11.90
2023-04-27T07:54:10.376Z,13.50
2023-04-27T07:56:37.112Z,11.97
2023-04-27T07:59:04.298Z,13.27
2023-04-27T08:01:31.453Z,12.03
2023-04-27T08:03:58.755Z,13.00
2023-04-27T08:06:28.845Z,12.13
2023-04-27T08:08:58.367Z,9.87
2023-04-27T08:11:25.092Z,14.93
2023-04-27T08:13:52.167Z,12.57
2023-04-27T08:16:18.869Z,13.20
2023-04-27T08:18:46.157Z,11.27
2023-04-27T08:21:12.817Z,12.43
2023-04-27T08:23:39.547Z,11.70
2023-04-27T08:26:06.614Z,12.37
2023-04-27T08:28:33.390Z,12.30
2023-04-27T08:31:00.549Z,10.70
2023-04-27T08:33:27.682Z,10.57
2023-04-27T08:35:55.439Z,11.90
2023-04-27T08:38:24.299Z,12.27
2023-04-27T08:40:52.306Z,11.07
2023-04-27T08:43:19.375Z,10.60
2023-04-27T08:45:50.347Z,10.77
2023-04-27T08:48:17.581Z,9.80
2023-04-27T08:50:45.034Z,11.37
2023-04-27T08:53:18.883Z,10.17
2023-04-27T08:55:46.009Z,11.93
2023-04-27T08:58:13.053Z,10.90
2023-04-27T09:00:41.716Z,12.07
2023-04-27T09:03:21.999Z,9.93
2023-04-27T09:06:00.663Z,13.77
2023-04-27T09:08:50.547Z,10.93
2023-04-27T09:11:31.398Z,11.67
2023-04-27T09:13:59.700Z,8.77
2023-04-27T09:16:29.168Z,9.97
2023-04-27T09:18:57.492Z,14.13
2023-04-27T09:21:29.109Z,12.37
2023-04-27T09:23:56.670Z,11.60
2023-04-27T09:26:25.752Z,8.70
2023-04-27T09:28:56.929Z,11.80
2023-04-27T09:31:34.919Z,11.30
2023-04-27T09:34:02.381Z,10.43
2023-04-27T09:36:30.773Z,12.57
2023-04-27T09:38:58.915Z,12.30
2023-04-27T09:41:26.071Z,12.30
2023-04-27T09:43:57.590Z,10.70
2023-04-27T09:46:25.918Z,11.80
2023-04-27T09:48:53.127Z,12.50
2023-04-27T09:51:19.805Z,12.53
2023-04-27T09:53:46.921Z,12.20
2023-04-27T09:56:14.022Z,14.67
2023-04-27T09:59:26.742Z,11.37
2023-04-27T10:02:02.794Z,12.20
2023-04-27T10:04:56.426Z,12.50
2023-04-27T10:07:23.740Z,11.30
2023-04-27T10:09:54.214Z,10.87
2023-04-27T10:12:28.804Z,11.13
2023-04-27T10:14:57.390Z,10.70
2023-04-27T10:17:32.383Z,12.07
2023-04-27T10:20:00.905Z,12.27
2023-04-27T10:22:44.879Z,13.80
2023-04-27T10:25:22.125Z,11.30
2023-04-27T10:27:58.669Z,13.00
2023-04-27T10:30:37.802Z,10.20
2023-04-27T10:33:10.674Z,10.67
2023-04-27T10:35:37.775Z,11.07
2023-04-27T10:38:18.825Z,11.17
2023-04-27T10:40:53.784Z,12.33
2023-04-27T10:43:26.703Z,9.00
2023-04-27T10:45:53.918Z,11.70
2023-04-27T10:48:21.239Z,11.47
2023-04-27T10:50:48.652Z,11.17
2023-04-27T10:53:16.814Z,12.13
2023-04-27T10:55:44.012Z,11.57
2023-04-27T10:58:11.248Z,12.80
2023-04-27T11:00:44.178Z,11.00
2023-04-27T11:03:12.468Z,10.80
2023-04-27T11:05:39.755Z,14.87
2023-04-27T11:08:07.102Z,9.30
2023-04-27T11:10:35.793Z,11.70
2023-04-27T11:13:10.134Z,10.97
2023-04-27T11:16:00.355Z,11.13
2023-04-27T11:18:31.518Z,11.87
2023-04-27T11:21:12.870Z,10.40
2023-04-27T11:23:39.995Z,10.57
2023-04-27T11:26:16.144Z,10.30
2023-04-27T11:28:44.676Z,13.23
2023-04-27T11:31:11.863Z,9.30
2023-04-27T11:33:40.169Z,9.20
2023-04-27T11:36:19.680Z,9.50
2023-04-27T11:38:46.896Z,12.67
2023-04-27T11:41:14.034Z,8.70
2023-04-27T11:43:49.323Z,8.20
2023-04-27T11:46:16.948Z,11.40
2023-04-27T11:48:44.072Z,9.47
2023-04-27T11:51:12.466Z,12.60
2023-04-27T11:53:40.020Z,10.40
2023-04-27T11:56:10.454Z,8.33
2023-04-27T11:58:38.805Z,9.37
2023-04-27T12:01:06.715Z,11.83
2023-04-27T12:03:34.796Z,11.70
2023-04-27T12:08:32.160Z,10.67
2023-04-27T12:10:59.351Z,10.63
2023-04-27T12:13:27.215Z,8.33
2023-04-27T12:15:53.941Z,10.40
2023-04-27T12:18:20.766Z,10.60
2023-04-27T12:20:47.867Z,10.93
2023-04-27T12:23:14.597Z,8.90
2023-04-27T12:25:43.749Z,9.23
2023-04-27T12:28:12.079Z,11.40
2023-04-27T12:30:38.802Z,11.60
2023-04-27T12:33:10.866Z,9.37
2023-04-27T12:35:37.923Z,11.23
2023-04-27T12:38:05.008Z,9.67
2023-04-27T12:40:33.153Z,8.23
2023-04-27T12:43:01.151Z,10.23
2023-04-27T12:45:28.251Z,11.40
2023-04-27T12:48:03.267Z,9.73
2023-04-27T12:50:32.000Z,9.00
2023-04-27T12:52:59.677Z,8.83
2023-04-27T12:55:33.753Z,10.17
2023-04-27T12:58:01.905Z,14.30
2023-04-27T13:00:29.782Z,11.03
2023-04-27T13:02:57.376Z,9.63
2023-04-27T13:05:24.334Z,9.13
2023-04-27T13:07:51.507Z,9.90
2023-04-27T13:10:18.229Z,12.80
2023-04-27T13:12:45.355Z,10.83
2023-04-27T13:15:12.396Z,10.50
2023-04-27T13:17:40.998Z,10.60
2023-04-27T13:20:09.755Z,9.83
2023-04-27T13:22:36.849Z,12.33
2023-04-27T13:25:05.972Z,10.30
2023-04-27T13:27:33.085Z,13.30
2023-04-27T13:29:59.882Z,9.10
2023-04-27T13:32:27.349Z,11.90
2023-04-27T13:34:54.086Z,11.03
2023-04-27T13:37:21.199Z,13.63
2023-04-27T13:39:48.289Z,11.37
2023-04-27T13:42:15.427Z,9.97
2023-04-27T13:44:43.374Z,10.60
2023-04-27T13:47:11.112Z,10.40
2023-04-27T13:49:38.090Z,9.53
2023-04-27T13:52:04.755Z,9.87
2023-04-27T13:54:31.962Z,9.97
2023-04-27T13:56:58.855Z,9.93
2023-04-27T13:59:25.715Z,10.57
2023-04-27T14:01:53.848Z,7.43
2023-04-27T14:04:21.098Z,11.53
2023-04-27T14:06:48.839Z,8.90
2023-04-27T14:09:16.598Z,10.20
2023-04-27T14:11:55.003Z,10.97
2023-04-27T14:14:24.138Z,7.90
2023-04-27T14:16:51.578Z,11.70
2023-04-27T14:19:20.456Z,7.87
2023-04-27T14:21:48.270Z,12.63
2023-04-27T14:24:15.359Z,9.87
2023-04-27T14:26:47.355Z,7.77
2023-04-27T14:29:14.900Z,11.23
2023-04-27T14:31:42.165Z,7.07
2023-04-27T14:34:09.588Z,8.10
2023-04-27T14:36:36.591Z,10.13
2023-04-27T14:39:04.559Z,8.80
2023-04-27T14:41:31.447Z,6.17
2023-04-27T14:43:58.331Z,9.80
2023-04-27T14:46:25.440Z,9.10
2023-04-27T14:48:52.567Z,9.53
2023-04-27T14:51:19.845Z,6.97
2023-04-27T14:53:46.910Z,9.53
2023-04-27T14:56:13.721Z,6.43
2023-04-27T14:58:41.417Z,11.30
2023-04-27T15:01:08.643Z,5.10
2023-04-27T15:03:36.073Z,7.93
2023-04-27T15:06:03.151Z,8.07
2023-04-27T15:08:32.740Z,7.07
2023-04-27T15:11:00.807Z,5.23
2023-04-27T15:13:28.230Z,6.60
2023-04-27T15:15:56.150Z,6.17
2023-04-27T15:18:23.556Z,6.88
2023-04-27T15:20:54.777Z,6.03
2023-04-27T15:23:22.604Z,5.50
2023-04-27T15:25:50.233Z,7.97
2023-04-27T15:28:18.141Z,5.63
2023-04-27T15:30:45.663Z,6.18
2023-04-27T15:33:13.736Z,7.25
2023-04-27T15:35:41.132Z,7.50
2023-04-27T15:38:10.062Z,5.97
2023-04-27T15:40:37.223Z,6.07
2023-04-27T15:43:04.839Z,8.50
2023-04-27T15:45:31.808Z,10.83
2023-04-27T15:47:58.891Z,5.23
2023-04-27T15:50:25.992Z,4.57
2023-04-27T15:52:53.803Z,8.90
2023-04-27T15:55:21.033Z,7.90
2023-04-27T15:57:48.165Z,6.13
2023-04-27T16:00:16.670Z,5.03
2023-04-27T16:02:43.995Z,5.50
2023-04-27T16:05:11.120Z,7.37
2023-04-27T16:07:40.072Z,5.03
2023-04-27T16:10:07.844Z,6.77
2023-04-27T16:12:35.482Z,6.18
2023-04-27T16:15:02.219Z,8.27
2023-04-27T16:17:35.933Z,4.47
2023-04-27T16:20:06.398Z,6.90
2023-04-27T16:22:34.209Z,10.77
2023-04-27T16:25:01.346Z,7.03
2023-04-27T16:27:28.619Z,6.93
2023-04-27T16:29:56.094Z,7.32
2023-04-27T16:32:23.086Z,6.27
2023-04-27T16:34:50.677Z,7.72
2023-04-27T16:37:17.792Z,6.13
2023-04-27T16:39:44.878Z,6.43
2023-04-27T16:42:16.227Z,6.50
2023-04-27T16:44:43.332Z,8.30
2023-04-27T16:47:10.447Z,5.87
2023-04-27T16:49:37.814Z,8.80
2023-04-27T16:52:05.138Z,6.73
2023-04-27T16:54:32.302Z,7.93
2023-04-27T16:56:59.549Z,6.57
2023-04-27T16:59:26.403Z,5.53
2023-04-27T17:01:53.591Z,7.37
2023-04-27T17:04:20.797Z,8.07
2023-04-27T17:06:48.412Z,7.67
2023-04-27T17:09:15.770Z,6.13
2023-04-27T17:11:43.077Z,7.60
2023-04-27T17:14:10.168Z,7.60
2023-04-27T17:16:36.849Z,6.80
2023-04-27T17:19:03.879Z,7.37
2023-04-27T17:21:31.931Z,8.30
2023-04-27T17:23:59.086Z,7.03
2023-04-27T17:26:26.253Z,7.27
2023-04-27T17:28:54.969Z,6.60
2023-04-27T17:31:21.662Z,6.40
2023-04-27T17:33:49.338Z,5.47
2023-04-27T17:36:16.028Z,6.13
2023-04-27T17:38:42.701Z,7.20
2023-04-27T17:41:09.886Z,5.43
2023-04-27T17:43:37.588Z,5.10
2023-04-27T17:46:09.696Z,7.37
2023-04-27T17:48:37.303Z,4.33
2023-04-27T17:51:04.413Z,7.27
2023-04-27T17:53:31.219Z,6.03
2023-04-27T17:55:58.306Z,6.03
2023-04-27T17:58:25.000Z,8.40
2023-04-27T18:00:51.928Z,5.60
2023-04-27T18:03:19.230Z,5.03
2023-04-27T18:05:46.498Z,5.17
2023-04-27T18:08:13.652Z,6.53
2023-04-27T18:10:41.260Z,4.83
2023-04-27T18:13:07.965Z,6.50
2023-04-27T18:15:35.069Z,6.00
2023-04-27T18:18:01.786Z,6.53
2023-04-27T18:20:28.557Z,5.30
2023-04-27T18:22:55.683Z,5.57
2023-04-27T18:25:22.762Z,6.00
2023-04-27T18:27:55.217Z,5.07
2023-04-27T18:30:22.902Z,6.53
2023-04-27T18:32:50.033Z,7.10
2023-04-27T18:35:16.782Z,5.13
2023-04-27T18:37:48.101Z,5.80
2023-04-27T18:40:19.465Z,7.20
2023-04-27T18:42:46.592Z,7.00
2023-04-27T18:45:13.304Z,5.63
2023-04-27T18:47:40.463Z,4.63
2023-04-27T18:50:07.911Z,5.33
2023-04-27T18:52:34.722Z,6.00
2023-04-27T18:55:01.923Z,4.60
2023-04-27T18:57:29.088Z,6.00
2023-04-27T18:59:56.237Z,7.23
2023-04-27T19:02:25.716Z,6.03
2023-04-27T19:05:07.013Z,8.10
2023-04-27T19:07:39.172Z,7.07
2023-04-27T19:10:07.749Z,6.93
2023-04-27T19:12:34.857Z,8.20
2023-04-27T19:15:02.118Z,8.63
2023-04-27T19:17:29.428Z,6.57
2023-04-27T19:19:56.520Z,7.83
2023-04-27T19:22:23.679Z,8.03
2023-04-27T19:24:50.372Z,6.90
2023-04-27T19:27:17.540Z,7.20
2023-04-27T19:29:57.282Z,6.97
2023-04-27T19:32:28.291Z,6.67
2023-04-27T19:34:56.500Z,8.00
2023-04-27T19:37:24.357Z,8.97
2023-04-27T19:39:51.685Z,6.43
2023-04-27T19:42:18.765Z,8.47
2023-04-27T19:44:45.935Z,7.97
2023-04-27T19:47:13.034Z,6.23
2023-04-27T19:49:39.752Z,7.83
2023-04-27T19:52:07.459Z,7.90
2023-04-27T19:54:37.972Z,8.20
2023-04-27T19:57:05.115Z,5.73
2023-04-27T19:59:31.828Z,9.33
2023-04-27T20:01:59.085Z,7.93
2023-04-27T20:05:22.461Z,6.73
2023-04-27T20:16:08.087Z,7.30
2023-04-27T20:26:53.462Z,8.50
2023-04-27T20:30:16.453Z,6.03
2023-04-27T20:33:39.774Z,6.43
2023-04-27T20:37:02.863Z,6.73
2023-04-27T20:40:25.864Z,7.90
2023-04-27T20:43:49.013Z,6.17
2023-04-27T20:47:11.782Z,7.03
2023-04-27T20:57:56.863Z,5.70
2023-04-27T21:05:00.362Z,6.47
2023-04-27T21:08:23.564Z,5.63
2023-04-27T21:11:46.581Z,5.43
2023-04-27T21:18:50.072Z,7.03
2023-04-27T21:51:20.507Z,5.97
2023-04-27T21:53:47.270Z,7.00
2023-04-27T21:57:10.435Z,4.43
2023-04-27T21:59:55.839Z,4.63
2023-04-27T22:03:18.854Z,5.03
2023-04-27T22:06:04.734Z,7.63
2023-04-27T22:08:49.916Z,5.93
2023-04-27T22:11:54.066Z,5.83
2023-04-27T22:14:39.632Z,3.90
2023-04-27T22:17:25.420Z,6.03
2023-04-27T22:20:48.484Z,3.93
2023-04-27T22:23:15.844Z,7.57
2023-04-27T22:25:43.128Z,6.63
2023-04-27T22:28:10.781Z,8.37
2023-04-27T22:30:38.782Z,6.20
2023-04-27T22:33:06.344Z,7.03
2023-04-27T22:35:33.904Z,6.70
2023-04-27T22:38:01.047Z,5.57
2023-04-27T22:40:28.405Z,6.77
2023-04-27T22:42:55.912Z,7.33
2023-04-27T22:45:23.450Z,5.47
2023-04-27T22:50:19.061Z,10.10
2023-04-27T22:52:46.027Z,6.80
2023-04-27T22:55:13.134Z,7.77
2023-04-27T22:57:40.946Z,5.07
2023-04-27T23:00:12.058Z,8.30
2023-04-27T23:02:40.345Z,6.47
2023-04-27T23:05:07.837Z,7.13
2023-04-27T23:07:35.994Z,7.50
2023-04-27T23:10:03.140Z,6.87
2023-04-27T23:12:30.758Z,8.20
2023-04-27T23:14:58.101Z,9.70
2023-04-27T23:17:30.476Z,6.17
2023-04-27T23:20:01.581Z,5.37
2023-04-27T23:22:29.334Z,4.17
2023-04-27T23:24:56.261Z,4.27
2023-04-27T23:27:24.760Z,5.93
2023-04-27T23:29:52.550Z,7.93
2023-04-27T23:32:19.445Z,6.30
2023-04-27T23:34:46.600Z,5.17
2023-04-27T23:37:13.403Z,6.77
2023-04-27T23:39:40.538Z,9.17
2023-04-27T23:42:07.179Z,9.63
2023-04-27T23:44:34.260Z,7.37
2023-04-27T23:47:01.044Z,7.13
2023-04-27T23:49:27.717Z,5.77
2023-04-27T23:51:54.497Z,7.20
2023-04-27T23:54:21.629Z,5.47
2023-04-27T23:56:50.423Z,11.17
2023-04-27T23:59:17.651Z,8.30
